Stowe, Vermont
Current Conditions -  °F | °C
As of 9:54 AM on Wednesday 22 Oct 2014 (Local Time) from KMVL Reporting Station
Overcast Overcast  
Wind Chill: 44°   Ceiling: 1000
Heat Index: 47°   Visibility: 10mi
Dew Point: 44°   Wind: 6mph
Humidity: 90%   Direction: 340°NNW
Pressure: 30.21"   Gusts: NA
Location:  44.47°N, 72.68°W
Report Text: KMVL 221354Z AUTO 34005KT 10SM OVC010 08/07 A3021 RMK AO2 SLP235 T00830067
Loading
Personal Weather Stations






























Interactive Weather Map New forecast layout! Learn more

10-Day Weather Forecast

Advertisements
Track Severe Weather on mobile